Time;durP1;ratioP1;P1;durP2;ratioP2;P2;SDS_P1;SDS_P2;PMS_P1;PMS_P2;Temp;Humidity;BMP_temperature;BMP_pressure;BME280_temperature;BME280_humidity;BME280_pressure;Samples;Min_cycle;Max_cycle;Signal;HPM_P1;HPM_P2
2021/06/20 00:01:41;;;;;;;;;;;25.00;99.90;;;;;;5129183;27;19915;-75
2021/06/20 00:04:07;;;;;;;;;;;25.00;99.90;;;;;;5132835;27;19951;-76
2021/06/20 00:06:34;;;;;;;;;;;25.00;99.90;;;;;;5145640;27;19907;-76
2021/06/20 00:09:01;;;;;;;;;;;24.90;99.90;;;;;;5147999;27;19911;-76
2021/06/20 00:11:27;;;;;;;;;;;24.90;99.90;;;;;;5133845;27;20032;-76
2021/06/20 00:13:53;;;;;;;;;;;24.80;99.90;;;;;;5123709;27;19964;-75
2021/06/20 00:16:19;;;;;;;;;;;24.90;99.90;;;;;;5131404;27;20353;-76
2021/06/20 00:18:44;;;;;;;;;;;24.80;99.90;;;;;;5140400;27;19918;-75
2021/06/20 00:21:10;;;;;;;;;;;24.80;99.90;;;;;;5136419;27;20285;-75
2021/06/20 00:23:36;;;;;;;;;;;24.80;99.90;;;;;;5126172;27;19919;-75
2021/06/20 00:26:02;;;;;;;;;;;24.70;99.90;;;;;;5138406;27;19919;-75
2021/06/20 00:28:27;;;;;;;;;;;24.70;99.90;;;;;;5107187;27;19915;-76
2021/06/20 00:30:53;;;;;;;;;;;24.70;99.90;;;;;;5130767;27;19930;-75
2021/06/20 00:33:19;;;;;;;;;;;24.70;99.90;;;;;;5132547;27;20324;-74
2021/06/20 00:35:45;;;;;;;;;;;24.60;99.90;;;;;;5132042;27;19911;-75
2021/06/20 00:38:10;;;;;;;;;;;24.60;99.90;;;;;;5129068;27;19960;-75
2021/06/20 00:40:36;;;;;;;;;;;24.60;99.90;;;;;;5139030;27;19923;-75
2021/06/20 00:43:01;;;;;;;;;;;24.60;99.90;;;;;;5131978;27;20002;-76
2021/06/20 00:45:27;;;;;;;;;;;24.60;99.90;;;;;;5130445;27;19917;-76
2021/06/20 00:47:54;;;;;;;;;;;24.60;99.90;;;;;;5139794;27;19911;-75
2021/06/20 00:50:20;;;;;;;;;;;24.50;99.90;;;;;;5131927;27;19912;-76
2021/06/20 00:52:46;;;;;;;;;;;24.60;99.90;;;;;;5141910;27;19911;-76
2021/06/20 00:55:12;;;;;;;;;;;24.60;99.90;;;;;;5117869;27;19918;-76
2021/06/20 00:57:38;;;;;;;;;;;24.70;99.90;;;;;;5133490;27;20381;-76
2021/06/20 01:00:07;;;;;;;;;;;24.70;99.90;;;;;;5131084;27;19961;-74
2021/06/20 01:02:33;;;;;;;;;;;24.60;99.90;;;;;;5132725;27;20002;-75
2021/06/20 01:04:58;;;;;;;;;;;24.40;99.90;;;;;;5120586;27;20031;-74
2021/06/20 01:07:24;;;;;;;;;;;24.40;99.90;;;;;;5133347;27;19911;-74
2021/06/20 01:09:51;;;;;;;;;;;24.40;99.90;;;;;;5137327;27;19912;-74
2021/06/20 01:12:17;;;;;;;;;;;24.40;99.90;;;;;;5153424;27;19911;-74
2021/06/20 01:14:43;;;;;;;;;;;24.50;99.90;;;;;;5148607;27;19943;-75
2021/06/20 01:17:09;;;;;;;;;;;24.50;99.90;;;;;;5153756;27;19915;-75
2021/06/20 01:19:39;;;;;;;;;;;24.50;99.90;;;;;;5145366;27;20078;-75
2021/06/20 01:22:37;;;;;;;;;;;24.50;99.90;;;;;;5148888;27;19911;-76
2021/06/20 01:25:07;;;;;;;;;;;24.50;99.90;;;;;;5107005;27;19958;-76
2021/06/20 01:27:35;;;;;;;;;;;24.40;99.90;;;;;;5125825;27;20541;-76
2021/06/20 01:30:03;;;;;;;;;;;24.30;99.90;;;;;;5123446;27;19908;-75
2021/06/20 01:32:29;;;;;;;;;;;24.30;99.90;;;;;;5132086;27;19912;-75
2021/06/20 01:34:55;;;;;;;;;;;24.30;99.90;;;;;;5140762;27;19915;-76
2021/06/20 01:37:21;;;;;;;;;;;24.30;99.90;;;;;;5130919;27;19919;-76
2021/06/20 01:39:46;;;;;;;;;;;24.40;99.90;;;;;;5130826;27;19915;-75
2021/06/20 01:42:14;;;;;;;;;;;24.40;99.90;;;;;;5137924;27;20395;-76
2021/06/20 01:44:50;;;;;;;;;;;24.30;99.90;;;;;;5134361;27;19915;-76
2021/06/20 01:47:16;;;;;;;;;;;24.20;99.90;;;;;;5129134;27;20304;-75
2021/06/20 01:49:42;;;;;;;;;;;24.30;99.90;;;;;;5139042;27;20366;-75
2021/06/20 01:52:08;;;;;;;;;;;24.40;99.90;;;;;;5116761;27;19954;-75
2021/06/20 01:54:35;;;;;;;;;;;24.30;99.90;;;;;;5136700;27;19911;-75
2021/06/20 01:57:02;;;;;;;;;;;24.40;99.90;;;;;;5143963;27;19915;-76
2021/06/20 01:59:27;;;;;;;;;;;24.40;99.90;;;;;;5124544;27;19916;-75
2021/06/20 02:01:53;;;;;;;;;;;24.40;99.90;;;;;;5132235;27;19911;-75
2021/06/20 02:04:18;;;;;;;;;;;24.30;99.90;;;;;;5131815;27;19962;-76
2021/06/20 02:06:44;;;;;;;;;;;24.10;99.90;;;;;;5129061;27;19911;-75
2021/06/20 02:09:09;;;;;;;;;;;24.10;99.90;;;;;;5139237;27;20368;-75
2021/06/20 02:11:35;;;;;;;;;;;24.10;99.90;;;;;;5133774;27;19919;-75
2021/06/20 02:14:00;;;;;;;;;;;24.20;99.90;;;;;;5131565;27;19911;-75
2021/06/20 02:16:26;;;;;;;;;;;24.30;99.90;;;;;;5138286;27;20445;-74
2021/06/20 02:18:51;;;;;;;;;;;24.40;99.90;;;;;;5133749;27;19963;-74
2021/06/20 02:21:17;;;;;;;;;;;24.40;99.90;;;;;;5140126;27;19936;-74
2021/06/20 02:23:43;;;;;;;;;;;24.40;99.90;;;;;;5124316;27;19915;-74
2021/06/20 02:26:08;;;;;;;;;;;24.40;99.90;;;;;;5135760;27;20237;-74
2021/06/20 02:28:34;;;;;;;;;;;24.30;99.90;;;;;;5140879;27;19915;-75
2021/06/20 02:30:59;;;;;;;;;;;24.30;99.90;;;;;;5126717;27;19988;-74
2021/06/20 02:33:25;;;;;;;;;;;24.30;99.90;;;;;;5137118;27;20417;-75
2021/06/20 02:35:50;;;;;;;;;;;24.30;99.90;;;;;;5143564;27;20505;-75
2021/06/20 02:38:16;;;;;;;;;;;24.30;99.90;;;;;;5132705;27;19915;-75
2021/06/20 02:40:42;;;;;;;;;;;24.40;99.90;;;;;;5139560;27;19954;-75
2021/06/20 02:43:07;;;;;;;;;;;24.20;99.90;;;;;;5136111;27;20280;-75
2021/06/20 02:45:33;;;;;;;;;;;24.20;99.90;;;;;;5137314;27;19999;-74
2021/06/20 02:47:58;;;;;;;;;;;24.20;99.90;;;;;;5134852;27;19992;-74
2021/06/20 02:50:24;;;;;;;;;;;24.20;99.90;;;;;;5124643;27;19908;-75
2021/06/20 02:52:50;;;;;;;;;;;24.00;99.90;;;;;;5122218;27;20365;-74
2021/06/20 02:55:15;;;;;;;;;;;23.90;99.90;;;;;;5146108;27;19934;-75
2021/06/20 02:57:41;;;;;;;;;;;23.80;99.90;;;;;;5137032;27;19922;-75
2021/06/20 03:00:07;;;;;;;;;;;23.90;99.90;;;;;;5146445;27;20392;-75
2021/06/20 03:02:32;;;;;;;;;;;24.00;99.90;;;;;;5140652;27;19973;-75
2021/06/20 03:04:58;;;;;;;;;;;23.90;99.90;;;;;;5119580;27;19998;-75
2021/06/20 03:07:24;;;;;;;;;;;23.90;99.90;;;;;;5139995;27;19911;-74
2021/06/20 03:09:50;;;;;;;;;;;24.00;99.90;;;;;;5142096;27;20280;-74
2021/06/20 03:12:16;;;;;;;;;;;24.10;99.90;;;;;;5113448;27;20477;-75
2021/06/20 03:14:42;;;;;;;;;;;24.00;99.90;;;;;;5138174;27;20009;-74
2021/06/20 03:17:08;;;;;;;;;;;23.90;99.90;;;;;;5138840;27;20308;-74
2021/06/20 03:19:35;;;;;;;;;;;23.90;99.90;;;;;;5141709;27;19915;-75
2021/06/20 03:22:01;;;;;;;;;;;23.90;99.90;;;;;;5150707;27;20388;-74
2021/06/20 03:24:27;;;;;;;;;;;23.90;99.90;;;;;;5147288;27;20284;-75
2021/06/20 03:26:52;;;;;;;;;;;24.00;99.90;;;;;;5134652;27;19980;-75
2021/06/20 03:29:18;;;;;;;;;;;24.10;99.90;;;;;;5136503;27;20440;-75
2021/06/20 03:31:44;;;;;;;;;;;24.00;99.90;;;;;;5139353;27;19911;-75
2021/06/20 03:34:09;;;;;;;;;;;24.00;99.90;;;;;;5136686;27;20384;-74
2021/06/20 03:36:35;;;;;;;;;;;24.00;99.90;;;;;;5134505;27;19918;-74
2021/06/20 03:39:00;;;;;;;;;;;24.20;99.90;;;;;;5140752;27;19915;-74
2021/06/20 03:41:26;;;;;;;;;;;24.20;99.90;;;;;;5144787;27;19919;-74
2021/06/20 03:43:52;;;;;;;;;;;24.20;99.90;;;;;;5129448;27;20010;-74
2021/06/20 03:46:18;;;;;;;;;;;24.10;99.90;;;;;;5140170;27;19912;-75
2021/06/20 03:48:45;;;;;;;;;;;23.90;99.90;;;;;;5132988;27;20361;-75
2021/06/20 03:51:10;;;;;;;;;;;23.90;99.90;;;;;;5137979;27;19955;-75
2021/06/20 03:53:36;;;;;;;;;;;23.80;99.90;;;;;;5145288;27;19964;-76
2021/06/20 03:56:02;;;;;;;;;;;23.70;99.90;;;;;;5122639;27;19961;-75
2021/06/20 03:58:27;;;;;;;;;;;23.70;99.90;;;;;;5118279;27;19915;-75
2021/06/20 04:00:53;;;;;;;;;;;23.60;99.90;;;;;;5138609;27;20381;-75
2021/06/20 04:03:19;;;;;;;;;;;23.70;99.90;;;;;;5135031;27;19919;-75
2021/06/20 04:05:44;;;;;;;;;;;23.70;99.90;;;;;;5139949;27;19911;-73
2021/06/20 04:08:10;;;;;;;;;;;23.70;99.90;;;;;;5137451;27;19917;-71
2021/06/20 04:10:36;;;;;;;;;;;23.70;99.90;;;;;;5142038;27;19911;-72
2021/06/20 04:13:01;;;;;;;;;;;23.90;99.90;;;;;;5131792;27;19938;-71
2021/06/20 04:15:27;;;;;;;;;;;24.00;99.90;;;;;;5142240;27;19908;-72
2021/06/20 04:17:53;;;;;;;;;;;24.10;99.90;;;;;;5118669;27;19919;-73
2021/06/20 04:20:18;;;;;;;;;;;24.10;99.90;;;;;;5136128;27;19919;-72
2021/06/20 04:22:44;;;;;;;;;;;24.20;99.90;;;;;;5121066;27;20032;-72
2021/06/20 04:25:14;;;;;;;;;;;24.30;99.90;;;;;;5116857;27;19912;-72
2021/06/20 04:27:44;;;;;;;;;;;24.40;99.90;;;;;;5140570;27;20112;-73
2021/06/20 04:30:12;;;;;;;;;;;24.50;99.90;;;;;;5133701;27;20014;-69
2021/06/20 04:32:38;;;;;;;;;;;24.50;99.90;;;;;;5120748;27;19918;-70
2021/06/20 04:35:04;;;;;;;;;;;24.60;99.90;;;;;;5133531;27;19996;-68
2021/06/20 04:37:30;;;;;;;;;;;24.50;99.90;;;;;;5133121;27;19961;-67
2021/06/20 04:39:55;;;;;;;;;;;24.50;99.90;;;;;;5132863;27;19912;-69
2021/06/20 04:42:27;;;;;;;;;;;24.50;99.90;;;;;;5132494;27;19915;-69
2021/06/20 04:44:53;;;;;;;;;;;24.30;99.90;;;;;;5134066;27;19986;-69
2021/06/20 04:47:19;;;;;;;;;;;24.30;99.90;;;;;;5129754;27;19955;-69
2021/06/20 04:49:45;;;;;;;;;;;24.30;99.90;;;;;;5139406;27;20400;-68
2021/06/20 04:52:12;;;;;;;;;;;24.40;99.90;;;;;;5114675;27;19994;-68
2021/06/20 04:54:49;;;;;;;;;;;24.40;99.90;;;;;;5133194;27;20006;-69
2021/06/20 04:57:17;;;;;;;;;;;24.60;99.90;;;;;;5126701;27;20262;-69
2021/06/20 04:59:43;;;;;;;;;;;24.60;99.90;;;;;;5133712;27;19915;-70
2021/06/20 05:02:08;;;;;;;;;;;24.80;99.90;;;;;;5136234;27;19936;-70
2021/06/20 05:04:34;;;;;;;;;;;24.80;99.90;;;;;;5137788;27;20407;-70
2021/06/20 05:07:01;;;;;;;;;;;25.00;99.90;;;;;;5133170;27;19907;-71
2021/06/20 05:09:26;;;;;;;;;;;25.00;99.90;;;;;;5134423;27;19911;-70
2021/06/20 05:11:52;;;;;;;;;;;25.10;99.90;;;;;;5132532;27;19908;-68
2021/06/20 05:14:17;;;;;;;;;;;25.20;99.90;;;;;;5130649;27;19911;-69
2021/06/20 05:16:43;;;;;;;;;;;25.30;99.90;;;;;;5132624;27;19907;-62
2021/06/20 05:19:08;;;;;;;;;;;25.40;99.90;;;;;;5132263;27;20289;-62
2021/06/20 05:21:34;;;;;;;;;;;25.50;99.90;;;;;;5132442;27;19936;-61
2021/06/20 05:24:01;;;;;;;;;;;25.80;99.90;;;;;;5132241;27;19965;-62
2021/06/20 05:26:26;;;;;;;;;;;25.80;99.90;;;;;;5132847;27;19907;-62
2021/06/20 05:28:52;;;;;;;;;;;25.90;99.90;;;;;;5138070;27;19915;-60
2021/06/20 05:31:17;;;;;;;;;;;26.10;99.90;;;;;;5136028;27;19911;-61
2021/06/20 05:33:43;;;;;;;;;;;26.10;99.90;;;;;;5125236;27;19919;-62
2021/06/20 05:36:08;;;;;;;;;;;26.20;99.90;;;;;;5131624;27;20324;-60
2021/06/20 05:38:34;;;;;;;;;;;26.20;99.90;;;;;;5136416;27;20269;-62
2021/06/20 05:40:59;;;;;;;;;;;26.40;99.90;;;;;;5131618;27;19998;-62
2021/06/20 05:43:25;;;;;;;;;;;26.50;99.90;;;;;;5128813;27;19911;-62
2021/06/20 05:45:51;;;;;;;;;;;26.50;99.90;;;;;;5135279;27;19911;-60
2021/06/20 05:48:16;;;;;;;;;;;26.70;99.90;;;;;;5133190;27;19915;-63
2021/06/20 05:50:42;;;;;;;;;;;26.70;99.90;;;;;;5145697;27;19934;-63
2021/06/20 05:53:08;;;;;;;;;;;26.60;99.90;;;;;;5147974;27;19911;-61
2021/06/20 05:55:33;;;;;;;;;;;26.60;99.90;;;;;;5143278;27;19968;-62
2021/06/20 05:57:59;;;;;;;;;;;26.70;99.90;;;;;;5130702;27;19915;-62
2021/06/20 06:00:25;;;;;;;;;;;26.70;99.90;;;;;;5130207;27;19911;-60
2021/06/20 06:02:50;;;;;;;;;;;26.90;99.90;;;;;;5133875;27;20390;-61
2021/06/20 06:05:16;;;;;;;;;;;26.90;99.90;;;;;;5136222;27;19985;-62
2021/06/20 06:07:42;;;;;;;;;;;26.90;99.90;;;;;;5141962;27;19911;-62
2021/06/20 06:10:08;;;;;;;;;;;26.90;99.90;;;;;;5130478;27;19927;-62
2021/06/20 06:12:33;;;;;;;;;;;27.00;99.90;;;;;;5134465;27;19911;-61
2021/06/20 06:15:00;;;;;;;;;;;27.00;99.90;;;;;;5128743;27;19962;-62
2021/06/20 06:17:25;;;;;;;;;;;27.00;99.90;;;;;;5123426;27;19923;-59
2021/06/20 06:19:52;;;;;;;;;;;27.00;99.90;;;;;;5130104;27;20202;-61
2021/06/20 06:22:18;;;;;;;;;;;27.20;99.90;;;;;;5113051;28;20009;-59
2021/06/20 06:24:45;;;;;;;;;;;27.40;99.90;;;;;;5131249;27;19947;-60
2021/06/20 06:27:11;;;;;;;;;;;27.40;99.90;;;;;;5125304;28;19927;-62
2021/06/20 06:29:36;;;;;;;;;;;27.60;99.90;;;;;;5108901;28;20372;-58
2021/06/20 06:32:02;;;;;;;;;;;27.70;99.90;;;;;;5119912;27;19911;-58
2021/06/20 06:34:28;;;;;;;;;;;27.90;99.90;;;;;;5120352;27;19911;-61
2021/06/20 06:36:53;;;;;;;;;;;27.80;99.90;;;;;;5125304;27;19912;-61
2021/06/20 06:39:20;;;;;;;;;;;28.00;99.90;;;;;;5130460;27;19919;-61
2021/06/20 06:41:46;;;;;;;;;;;28.00;99.90;;;;;;5125165;27;19911;-61
2021/06/20 06:44:11;;;;;;;;;;;28.20;99.90;;;;;;5135946;27;19919;-61
2021/06/20 06:46:37;;;;;;;;;;;28.20;99.90;;;;;;5129857;27;19911;-61
2021/06/20 06:49:02;;;;;;;;;;;28.30;99.90;;;;;;5112450;27;19942;-61
2021/06/20 06:51:28;;;;;;;;;;;28.20;99.90;;;;;;5143186;27;19907;-61
2021/06/20 06:53:54;;;;;;;;;;;28.40;99.90;;;;;;5145227;27;19911;-61
2021/06/20 06:56:19;;;;;;;;;;;28.40;99.90;;;;;;5130694;27;19919;-58
2021/06/20 06:58:45;;;;;;;;;;;28.40;99.90;;;;;;5138260;27;19917;-61
2021/06/20 07:01:10;;;;;;;;;;;28.40;99.90;;;;;;5127506;27;19911;-64
2021/06/20 07:03:36;;;;;;;;;;;28.40;99.90;;;;;;5131546;27;19919;-64
2021/06/20 07:06:02;;;;;;;;;;;28.40;99.90;;;;;;5136875;27;19923;-59
2021/06/20 07:08:28;;;;;;;;;;;28.50;99.90;;;;;;5142391;27;19914;-62
2021/06/20 07:10:54;;;;;;;;;;;28.70;99.90;;;;;;5123714;27;19954;-61
2021/06/20 07:13:20;;;;;;;;;;;28.70;99.90;;;;;;5135073;27;19955;-61
2021/06/20 07:15:45;;;;;;;;;;;28.80;99.90;;;;;;5134003;27;19957;-62
2021/06/20 07:18:11;;;;;;;;;;;28.80;99.90;;;;;;5114278;27;20357;-63
2021/06/20 07:20:37;;;;;;;;;;;28.70;99.90;;;;;;5147695;27;19908;-62
2021/06/20 07:23:03;;;;;;;;;;;28.80;99.90;;;;;;5136570;27;20379;-64
2021/06/20 07:25:28;;;;;;;;;;;28.70;99.90;;;;;;5143688;27;20052;-64
2021/06/20 07:27:54;;;;;;;;;;;28.60;99.90;;;;;;5144951;27;20383;-65
2021/06/20 07:30:20;;;;;;;;;;;28.50;99.90;;;;;;5140621;27;19998;-66
2021/06/20 07:32:46;;;;;;;;;;;28.60;99.90;;;;;;5121719;27;19912;-67
2021/06/20 07:35:12;;;;;;;;;;;28.60;99.90;;;;;;5133500;27;20003;-64
2021/06/20 07:37:38;;;;;;;;;;;28.70;99.90;;;;;;5142915;27;19912;-64
2021/06/20 07:40:05;;;;;;;;;;;28.90;99.90;;;;;;5141636;27;19911;-64
2021/06/20 07:42:31;;;;;;;;;;;29.10;99.90;;;;;;5144658;27;20268;-64
2021/06/20 07:44:56;;;;;;;;;;;29.30;99.90;;;;;;5141865;27;19912;-66
2021/06/20 07:47:22;;;;;;;;;;;29.50;99.90;;;;;;5131594;27;20309;-65
2021/06/20 07:49:48;;;;;;;;;;;29.60;99.90;;;;;;5138805;27;19912;-65
2021/06/20 07:52:13;;;;;;;;;;;29.70;99.90;;;;;;5134484;27;19915;-66
2021/06/20 07:54:42;;;;;;;;;;;29.90;99.90;;;;;;5139150;27;19954;-63
2021/06/20 07:57:08;;;;;;;;;;;29.70;99.90;;;;;;5140522;27;19911;-64
2021/06/20 07:59:34;;;;;;;;;;;29.40;99.90;;;;;;5124576;27;20392;-65
2021/06/20 08:01:59;;;;;;;;;;;29.60;99.90;;;;;;5114680;27;19956;-64
2021/06/20 08:04:25;;;;;;;;;;;29.70;99.90;;;;;;5134846;27;19934;-65
2021/06/20 08:06:50;;;;;;;;;;;29.90;99.90;;;;;;5126178;27;20387;-63
2021/06/20 08:09:18;;;;;;;;;;;30.20;99.90;;;;;;5132108;27;19953;-68
2021/06/20 08:11:44;;;;;;;;;;;30.30;99.90;;;;;;5131401;27;19911;-64
2021/06/20 08:14:09;;;;;;;;;;;30.40;99.90;;;;;;5135353;27;19918;-65
2021/06/20 08:16:35;;;;;;;;;;;30.30;99.90;;;;;;5145282;27;19919;-64
2021/06/20 08:19:00;;;;;;;;;;;30.20;99.90;;;;;;5114928;27;19923;-66
2021/06/20 08:21:26;;;;;;;;;;;29.60;99.90;;;;;;5146070;27;19914;-68
2021/06/20 08:23:51;;;;;;;;;;;29.30;99.90;;;;;;5126839;27;19916;-70
2021/06/20 08:26:17;;;;;;;;;;;29.10;99.90;;;;;;5124595;27;19994;-70
2021/06/20 08:28:43;;;;;;;;;;;28.90;99.90;;;;;;5135833;27;20229;-68
2021/06/20 08:31:09;;;;;;;;;;;28.80;99.90;;;;;;5141098;27;19911;-66
2021/06/20 08:33:35;;;;;;;;;;;28.90;99.90;;;;;;5128497;27;19912;-68
2021/06/20 08:36:01;;;;;;;;;;;28.90;99.90;;;;;;5136580;27;20544;-68
2021/06/20 08:38:30;;;;;;;;;;;28.90;99.90;;;;;;5127601;27;19941;-67
2021/06/20 08:40:56;;;;;;;;;;;28.90;99.90;;;;;;5130853;27;19916;-70
2021/06/20 08:43:23;;;;;;;;;;;29.00;99.90;;;;;;5142611;27;19921;-68
2021/06/20 08:45:52;;;;;;;;;;;29.20;99.90;;;;;;5113887;27;19911;-67
2021/06/20 08:48:18;;;;;;;;;;;29.50;99.90;;;;;;5134146;27;19964;-68
2021/06/20 08:50:44;;;;;;;;;;;29.80;99.90;;;;;;5134323;27;19943;-67
2021/06/20 08:53:14;;;;;;;;;;;29.70;99.90;;;;;;5113477;27;19970;-67
2021/06/20 08:55:40;;;;;;;;;;;29.90;99.90;;;;;;5116183;27;19918;-68
2021/06/20 08:58:16;;;;;;;;;;;30.00;99.90;;;;;;5135040;27;19915;-67
2021/06/20 09:00:42;;;;;;;;;;;30.10;99.90;;;;;;5115409;27;19923;-66
2021/06/20 09:03:08;;;;;;;;;;;30.20;99.90;;;;;;5131894;27;20292;-66
2021/06/20 09:05:33;;;;;;;;;;;30.30;99.90;;;;;;5132128;27;19977;-68
2021/06/20 09:07:59;;;;;;;;;;;30.20;99.90;;;;;;5125588;27;19918;-69
2021/06/20 09:10:26;;;;;;;;;;;29.90;99.90;;;;;;5139439;27;20021;-70
2021/06/20 09:12:53;;;;;;;;;;;29.60;99.90;;;;;;5132085;27;19923;-69
2021/06/20 09:15:20;;;;;;;;;;;29.30;99.90;;;;;;5132642;27;19914;-66
2021/06/20 09:17:47;;;;;;;;;;;29.20;99.90;;;;;;5129987;27;20399;-66
2021/06/20 09:20:13;;;;;;;;;;;29.00;99.90;;;;;;5141077;27;19911;-65
2021/06/20 09:22:38;;;;;;;;;;;28.90;99.90;;;;;;5134814;27;19911;-65
2021/06/20 09:25:06;;;;;;;;;;;28.90;99.90;;;;;;5132968;27;20079;-66
2021/06/20 09:27:33;;;;;;;;;;;28.80;99.90;;;;;;5132063;27;19915;-66
2021/06/20 09:30:17;;;;;;;;;;;28.60;99.90;;;;;;5131239;27;19943;-65
2021/06/20 09:32:55;;;;;;;;;;;28.50;99.90;;;;;;5128974;27;19960;-66
2021/06/20 09:35:21;;;;;;;;;;;28.50;99.90;;;;;;5120811;27;19912;-66
2021/06/20 09:37:51;;;;;;;;;;;28.50;99.90;;;;;;5130607;27;19915;-66
2021/06/20 09:40:17;;;;;;;;;;;28.90;99.90;;;;;;5132273;27;19927;-65
2021/06/20 09:42:43;;;;;;;;;;;28.90;99.90;;;;;;5132557;27;19911;-64
2021/06/20 09:45:09;;;;;;;;;;;28.80;99.90;;;;;;5131777;27;19911;-64
2021/06/20 09:47:40;;;;;;;;;;;28.90;99.90;;;;;;5131742;27;20006;-64
2021/06/20 09:50:06;;;;;;;;;;;29.10;99.90;;;;;;5132267;27;19972;-65
2021/06/20 09:52:33;;;;;;;;;;;29.10;99.90;;;;;;5131899;27;19920;-64
2021/06/20 09:55:00;;;;;;;;;;;29.10;99.90;;;;;;5131895;27;19912;-66
2021/06/20 09:57:26;;;;;;;;;;;29.10;99.90;;;;;;5131896;27;19934;-64
2021/06/20 09:59:59;;;;;;;;;;;29.00;99.90;;;;;;5129816;27;20408;-66
2021/06/20 10:02:26;;;;;;;;;;;29.10;99.90;;;;;;5133459;27;19911;-65
2021/06/20 10:04:52;;;;;;;;;;;29.40;99.90;;;;;;5131939;27;19918;-64
2021/06/20 10:07:18;;;;;;;;;;;29.60;99.90;;;;;;5109480;27;19919;-64
2021/06/20 10:09:43;;;;;;;;;;;29.70;99.90;;;;;;5131334;27;19918;-65
2021/06/20 10:12:09;;;;;;;;;;;29.60;99.90;;;;;;5130734;27;19919;-64
2021/06/20 10:14:40;;;;;;;;;;;29.60;99.90;;;;;;5121850;27;19907;-65
2021/06/20 10:17:08;;;;;;;;;;;29.70;99.90;;;;;;5128410;27;19958;-67
2021/06/20 10:19:34;;;;;;;;;;;29.90;99.90;;;;;;5130936;27;19911;-65
2021/06/20 10:22:02;;;;;;;;;;;29.80;99.90;;;;;;5136622;27;19930;-64
2021/06/20 10:24:28;;;;;;;;;;;29.50;99.90;;;;;;5129809;27;19919;-64
2021/06/20 10:26:58;;;;;;;;;;;29.40;99.90;;;;;;5134305;27;19911;-65
2021/06/20 10:29:28;;;;;;;;;;;29.60;99.90;;;;;;5130904;27;20011;-66
2021/06/20 10:31:54;;;;;;;;;;;29.50;99.90;;;;;;5130182;28;19915;-66
2021/06/20 10:34:25;;;;;;;;;;;29.40;99.90;;;;;;5128931;27;19971;-65
2021/06/20 10:36:52;;;;;;;;;;;29.30;99.90;;;;;;5131231;28;19911;-65
2021/06/20 10:39:17;;;;;;;;;;;29.30;99.90;;;;;;5131481;27;19912;-65
2021/06/20 10:41:43;;;;;;;;;;;29.40;99.90;;;;;;5112503;28;19908;-65
2021/06/20 10:44:09;;;;;;;;;;;29.60;99.90;;;;;;5130624;28;19915;-67
2021/06/20 10:46:36;;;;;;;;;;;29.90;99.90;;;;;;5131292;28;19998;-65
2021/06/20 10:49:12;;;;;;;;;;;30.20;99.90;;;;;;5130591;27;20565;-67
2021/06/20 10:51:37;;;;;;;;;;;30.20;99.90;;;;;;5131222;28;19915;-65
2021/06/20 10:54:03;;;;;;;;;;;30.00;99.90;;;;;;5131498;28;19908;-67
2021/06/20 10:56:30;;;;;;;;;;;30.00;99.90;;;;;;5133323;27;19912;-66
2021/06/20 10:58:56;;;;;;;;;;;30.00;99.90;;;;;;5134571;27;20011;-67
2021/06/20 11:01:28;;;;;;;;;;;29.90;99.90;;;;;;5134447;27;20023;-65
2021/06/20 11:03:53;;;;;;;;;;;30.00;99.90;;;;;;5126878;27;19939;-65
2021/06/20 11:06:20;;;;;;;;;;;29.90;99.90;;;;;;5134031;27;20012;-66
2021/06/20 11:08:59;;;;;;;;;;;29.90;99.90;;;;;;5133718;27;20142;-66
2021/06/20 11:11:28;;;;;;;;;;;30.00;99.90;;;;;;5135085;27;19927;-66
2021/06/20 11:13:57;;;;;;;;;;;29.70;99.90;;;;;;5135008;27;19915;-65
2021/06/20 11:16:25;;;;;;;;;;;29.40;99.90;;;;;;5135076;27;19980;-65
2021/06/20 11:19:06;;;;;;;;;;;29.20;99.90;;;;;;5133673;27;19916;-64
2021/06/20 11:21:37;;;;;;;;;;;29.30;99.90;;;;;;5134728;27;20340;-66
2021/06/20 11:24:03;;;;;;;;;;;29.50;99.90;;;;;;5135094;27;19915;-65
2021/06/20 11:26:28;;;;;;;;;;;29.60;99.90;;;;;;5135722;27;19908;-67
2021/06/20 11:29:01;;;;;;;;;;;29.60;99.90;;;;;;5116402;27;19926;-67
2021/06/20 11:31:26;;;;;;;;;;;29.40;99.90;;;;;;5134297;27;19911;-65
2021/06/20 11:33:53;;;;;;;;;;;29.20;99.90;;;;;;5135017;27;19911;-66
2021/06/20 11:36:19;;;;;;;;;;;28.90;99.90;;;;;;5134621;27;19911;-65
2021/06/20 11:38:44;;;;;;;;;;;28.90;99.90;;;;;;5131926;27;19915;-66
2021/06/20 11:41:12;;;;;;;;;;;28.90;99.90;;;;;;5134299;27;19907;-65
2021/06/20 11:43:52;;;;;;;;;;;29.10;99.90;;;;;;5134481;27;19908;-66
2021/06/20 11:46:19;;;;;;;;;;;28.90;99.90;;;;;;5134465;27;19907;-67
2021/06/20 11:48:51;;;;;;;;;;;28.80;99.90;;;;;;5133596;27;19990;-68
2021/06/20 11:51:26;;;;;;;;;;;28.70;99.90;;;;;;5134468;27;19908;-72
2021/06/20 11:53:52;;;;;;;;;;;28.90;99.90;;;;;;5133640;27;19912;-69
2021/06/20 11:56:26;;;;;;;;;;;29.20;99.90;;;;;;5134182;27;19967;-76
2021/06/20 11:58:52;;;;;;;;;;;29.50;99.90;;;;;;5116044;27;19915;-69
2021/06/20 12:01:17;;;;;;;;;;;29.70;99.90;;;;;;5113900;28;19960;-73
2021/06/20 12:03:43;;;;;;;;;;;29.70;99.90;;;;;;5115052;27;19908;-74
2021/06/20 12:06:08;;;;;;;;;;;30.00;99.90;;;;;;5133674;27;19919;-69
2021/06/20 12:08:34;;;;;;;;;;;30.00;99.90;;;;;;5133080;27;20011;-72
2021/06/20 12:11:00;;;;;;;;;;;29.60;99.90;;;;;;5134188;27;20365;-68
2021/06/20 12:13:25;;;;;;;;;;;29.50;99.90;;;;;;5134411;27;19911;-70
2021/06/20 12:16:00;;;;;;;;;;;29.60;99.90;;;;;;5133751;27;19919;-70
2021/06/20 12:18:26;;;;;;;;;;;29.40;99.90;;;;;;5119399;27;20373;-69
2021/06/20 12:20:53;;;;;;;;;;;29.40;99.90;;;;;;5113171;28;19998;-69
2021/06/20 12:23:22;;;;;;;;;;;29.40;99.90;;;;;;5113208;28;19915;-70
2021/06/20 12:25:49;;;;;;;;;;;29.40;99.90;;;;;;5113204;28;19914;-69
2021/06/20 12:28:15;;;;;;;;;;;29.40;99.90;;;;;;5122366;27;19911;-69
2021/06/20 12:30:41;;;;;;;;;;;29.40;99.90;;;;;;5134941;27;19908;-70
2021/06/20 12:33:07;;;;;;;;;;;29.40;99.90;;;;;;5137642;27;20310;-70
2021/06/20 12:35:33;;;;;;;;;;;29.50;99.90;;;;;;5135702;27;20434;-69
2021/06/20 12:37:59;;;;;;;;;;;29.40;99.90;;;;;;5135963;27;19907;-69
2021/06/20 12:40:26;;;;;;;;;;;29.30;99.90;;;;;;5135809;27;19973;-70
2021/06/20 12:42:53;;;;;;;;;;;29.40;99.90;;;;;;5134609;27;19927;-69
2021/06/20 12:45:25;;;;;;;;;;;29.40;99.90;;;;;;5134720;27;19977;-69
2021/06/20 12:47:52;;;;;;;;;;;29.30;99.90;;;;;;5133785;27;19938;-72
2021/06/20 12:50:25;;;;;;;;;;;29.30;99.90;;;;;;5133847;27;19907;-70
2021/06/20 12:52:50;;;;;;;;;;;29.40;99.90;;;;;;5133703;27;19952;-74
2021/06/20 12:55:19;;;;;;;;;;;29.60;99.90;;;;;;5133407;27;20010;-70
2021/06/20 12:57:52;;;;;;;;;;;29.70;99.90;;;;;;5132827;27;20000;-71
2021/06/20 13:00:19;;;;;;;;;;;29.60;99.90;;;;;;5132771;27;19915;-69
2021/06/20 13:02:49;;;;;;;;;;;29.80;99.90;;;;;;5131866;27;19918;-69
2021/06/20 13:05:26;;;;;;;;;;;29.90;99.90;;;;;;5133028;27;19907;-70
2021/06/20 13:07:52;;;;;;;;;;;29.90;99.90;;;;;;5127988;27;19975;-70
2021/06/20 13:10:17;;;;;;;;;;;30.00;99.90;;;;;;5132967;27;19916;-72
2021/06/20 13:12:43;;;;;;;;;;;30.00;99.90;;;;;;5132872;27;19915;-73
2021/06/20 13:15:10;;;;;;;;;;;30.10;99.90;;;;;;5132843;27;19912;-69
2021/06/20 13:17:36;;;;;;;;;;;30.30;99.90;;;;;;5132726;27;20007;-70
2021/06/20 13:20:03;;;;;;;;;;;30.30;99.90;;;;;;5131947;27;20355;-72
2021/06/20 13:22:29;;;;;;;;;;;30.20;99.90;;;;;;5132504;27;20361;-71
2021/06/20 13:24:54;;;;;;;;;;;30.10;99.90;;;;;;5132568;27;19937;-70
2021/06/20 13:27:20;;;;;;;;;;;29.80;99.90;;;;;;5132302;27;19972;-71
2021/06/20 13:29:45;;;;;;;;;;;29.60;99.90;;;;;;5132569;27;19911;-72
2021/06/20 13:32:11;;;;;;;;;;;29.50;99.90;;;;;;5130488;27;19907;-72
2021/06/20 13:34:36;;;;;;;;;;;29.60;99.90;;;;;;5130661;27;19912;-74
2021/06/20 13:37:03;;;;;;;;;;;29.80;99.90;;;;;;5125199;27;20258;-74
2021/06/20 13:39:29;;;;;;;;;;;29.90;99.90;;;;;;5124815;27;19927;-74
2021/06/20 13:41:55;;;;;;;;;;;29.60;99.90;;;;;;5153486;27;19907;-74
2021/06/20 13:44:20;;;;;;;;;;;29.60;99.90;;;;;;5115581;27;19958;-74
2021/06/20 13:46:49;;;;;;;;;;;29.60;99.90;;;;;;5132775;27;19912;-74
2021/06/20 13:49:15;;;;;;;;;;;29.80;99.90;;;;;;5144201;27;19911;-74
2021/06/20 13:51:41;;;;;;;;;;;29.90;99.90;;;;;;5145271;27;20027;-73
2021/06/20 13:54:06;;;;;;;;;;;29.90;99.90;;;;;;5137836;27;20314;-72
2021/06/20 13:56:32;;;;;;;;;;;30.10;99.90;;;;;;5139713;27;19915;-73
2021/06/20 13:58:57;;;;;;;;;;;29.90;99.90;;;;;;5111009;27;19966;-71
2021/06/20 14:01:23;;;;;;;;;;;30.20;99.90;;;;;;5132617;27;20348;-72
2021/06/20 14:03:48;;;;;;;;;;;30.30;99.90;;;;;;5129980;27;19958;-72
2021/06/20 14:06:14;;;;;;;;;;;30.40;99.90;;;;;;5141230;27;19959;-72
2021/06/20 14:08:39;;;;;;;;;;;30.50;99.90;;;;;;5139891;27;19912;-71
2021/06/20 14:11:05;;;;;;;;;;;30.80;99.90;;;;;;5148534;27;19915;-71
2021/06/20 14:13:31;;;;;;;;;;;31.10;99.90;;;;;;5132698;27;20325;-70